Nearby METAR Reports

 

EGNV - Tees-Side, United Kingdom
Distance from station: W 8mi, 13km
Updated: 15/10/2019 18:20
Mostly cloudy
Mostly cloudy
 Wind from SSW
Wind: SSW 6 mph , 9 km/h
Temperature: 12°C
Dew Point: 10°C
Humidity: 88%
Barometer: 1002 hPa
Clouds: Mostly cloudy
Visibility: 6 miles , 10 km
Cloud details: Few Clouds 701 m
Partly cloudy 914 m
Mostly cloudy 1280 m
2019/10/15 17:20 EGNV 151720Z 20005KT 9999 FEW023 SCT030 BKN042 12/10 Q1002
EGXE - Leeming Raf, United Kingdom
Distance from station: SW 21mi, 34km
Updated: 15/10/2019 17:50
Mostly cloudy
Mostly cloudy
 Wind from SW
Wind: SW 10 mph , 17 km/h
Temperature: 12°C
Dew Point: 9°C
Humidity: 82%
Barometer: 1001 hPa
Clouds: Mostly cloudy
Visibility: 6 miles , 10 km
Cloud details: Mostly cloudy 1189 m
2019/10/15 16:50 EGXE 151650Z AUTO 22009KT 9999 BKN039/// 12/09 Q1001
 
EGXZ - Topcliffe Raf, United Kingdom
Distance from station: SSW 24mi, 38km
Updated: 15/10/2019 17:50
Mostly cloudy
Mostly cloudy
 Wind from SW
Wind: SW 7 mph , 11 km/h
Temperature: 12°C
Dew Point: 9°C
Humidity: 82%
Barometer: 1002 hPa
Clouds: Mostly cloudy
Visibility: 2 miles , 3 km
Cloud details: Few Clouds 792 m
Mostly cloudy 1006 m
2019/10/15 16:50 EGXZ 151650Z AUTO 23006KT 3300 FEW026/// BKN033/// 12/09 Q1002
EGXD - Dishforth Raf, United Kingdom
Distance from station: SSW 29mi, 46km
Updated: 06/06/2016 10:50
NOT Current
Clear
Clear
 Wind from SSE
Wind: SSE 5 mph , 7 km/h
Temperature: 18°C
Dew Point: 11°C
Humidity: 64%
Barometer: 1023 hPa
Clouds: Clear
Visibility: 6 miles , 10 km
2016/06/06 09:50 EGXD 060950Z AUTO 16004KT 9999 // NCD 18/11 Q1023
 
EGXU - Linton-On-Ouse R, United Kingdom
Distance from station: S 33mi, 53km
Updated: 15/10/2019 17:50
Overcast
Overcast
 Wind from SW
Wind: SW 7 mph , 11 km/h
Temperature: 12°C
Dew Point: 9°C
Humidity: 82%
Barometer: 1002 hPa
Clouds: Overcast
Visibility: 6 miles , 10 km
Cloud details: Overcast 488 m
2019/10/15 16:50 EGXU 151650Z AUTO 23006KT 9999 // OVC016/// 12/09 Q1002
EGNT - Newcastle, United Kingdom
Distance from station: NNW 39mi, 63km
Updated: 15/10/2019 18:20
Mostly cloudy
Mostly cloudy
 Wind from SW
Wind: SW 3 mph , 6 km/h
Temperature: 11°C
Dew Point: 10°C
Humidity: 94%
Barometer: 1001 hPa
Clouds: Mostly cloudy
Visibility: 6 miles , 10 km
Cloud details: Few Clouds 762 m
Mostly cloudy 1067 m
2019/10/15 17:20 EGNT 151720Z 22003KT 9999 FEW025 BKN035 11/10 Q1001
 
EGNM - Leeds And Bradfo, United Kingdom
Distance from station: SSW 49mi, 79km
Updated: 15/10/2019 18:20
Mostly cloudy
Mostly cloudy
 Wind from WSW
Wind: WSW 5 mph , 7 km/h
Temperature: 10°C
Wind Chill: 9°C
Dew Point: 7°C
Humidity: 82%
Barometer: 1002 hPa
Clouds: Mostly cloudy
Visibility: 6 miles , 10 km
Cloud details: Mostly cloudy 396 m
2019/10/15 17:20 EGNM 151720Z 24004KT 200V270 9999 BKN013 10/07 Q1002